createdAt,value
2017-07-28T00:01:00.557Z,71.60
2017-07-28T00:03:28.606Z,71.50
2017-07-28T00:05:56.679Z,71.20
2017-07-28T00:08:24.739Z,71.60
2017-07-28T00:10:52.821Z,71.80
2017-07-28T00:13:20.890Z,71.80
2017-07-28T00:15:48.954Z,71.80
2017-07-28T00:25:39.456Z,72.30
2017-07-28T00:28:07.527Z,73.10
2017-07-28T00:30:35.590Z,72.70
2017-07-28T00:33:03.663Z,72.90
2017-07-28T00:35:31.726Z,72.50
2017-07-28T00:37:59.803Z,72.30
2017-07-28T00:40:27.872Z,72.20
2017-07-28T00:42:55.943Z,72.30
2017-07-28T00:45:24.015Z,72.10
2017-07-28T00:47:52.087Z,72.10
2017-07-28T00:50:20.169Z,72.10
2017-07-28T00:52:48.232Z,71.90
2017-07-28T00:58:13.278Z,72.20
2017-07-28T01:00:41.348Z,72.30
2017-07-28T01:03:09.419Z,72.00
2017-07-28T01:05:37.814Z,72.10
2017-07-28T01:08:05.880Z,72.00
2017-07-28T01:10:33.958Z,72.40
2017-07-28T01:13:02.027Z,72.50
2017-07-28T01:15:30.090Z,72.50
2017-07-28T01:17:58.184Z,72.40
2017-07-28T01:20:26.251Z,72.30
2017-07-28T01:22:54.322Z,72.50
2017-07-28T01:25:22.390Z,72.20
2017-07-28T01:27:50.462Z,72.50
2017-07-28T01:30:18.534Z,72.40
2017-07-28T01:32:46.615Z,72.60
2017-07-28T01:35:14.726Z,72.90
2017-07-28T01:37:42.800Z,72.70
2017-07-28T01:40:10.867Z,72.70
2017-07-28T01:42:38.976Z,72.70
2017-07-28T01:45:07.037Z,73.10
2017-07-28T01:47:35.111Z,73.00
2017-07-28T01:50:03.177Z,73.10
2017-07-28T01:52:31.259Z,73.20
2017-07-28T01:54:59.335Z,73.20
2017-07-28T01:57:27.407Z,73.40
2017-07-28T01:59:55.475Z,73.20
2017-07-28T02:02:24.105Z,72.90
2017-07-28T02:04:52.166Z,73.20
2017-07-28T02:07:20.240Z,73.40
2017-07-28T02:09:48.310Z,73.30
2017-07-28T02:12:16.378Z,74.00
2017-07-28T02:14:44.455Z,74.00
2017-07-28T02:17:12.528Z,73.90
2017-07-28T02:19:40.584Z,74.00
2017-07-28T02:22:08.659Z,73.80
2017-07-28T02:24:36.733Z,73.90
2017-07-28T02:27:04.823Z,73.90
2017-07-28T02:29:32.883Z,73.90
2017-07-28T02:32:00.960Z,73.30
2017-07-28T02:34:29.022Z,73.40
2017-07-28T02:36:57.095Z,73.50
2017-07-28T02:39:25.160Z,73.30
2017-07-28T02:41:53.236Z,73.50
2017-07-28T02:44:21.342Z,73.50
2017-07-28T02:46:50.194Z,73.40
2017-07-28T02:49:18.251Z,73.20
2017-07-28T02:51:46.323Z,73.30
2017-07-28T02:54:14.397Z,73.50
2017-07-28T02:56:42.467Z,73.20
2017-07-28T02:59:10.539Z,73.00
2017-07-28T03:01:38.610Z,72.70
2017-07-28T03:04:06.686Z,72.60
2017-07-28T03:06:34.756Z,72.80
2017-07-28T03:09:02.833Z,72.70
2017-07-28T03:11:30.899Z,72.90
2017-07-28T03:13:58.974Z,72.80
2017-07-28T03:16:27.047Z,73.20
2017-07-28T03:18:55.122Z,72.90
2017-07-28T03:21:23.189Z,72.80
2017-07-28T03:23:51.263Z,72.80
2017-07-28T03:26:19.319Z,72.50
2017-07-28T03:28:47.451Z,72.00
2017-07-28T03:31:15.561Z,71.80
2017-07-28T03:33:44.410Z,71.20
2017-07-28T03:36:12.484Z,71.00
2017-07-28T03:38:40.550Z,70.80
2017-07-28T03:41:09.427Z,70.90
2017-07-28T03:43:37.524Z,70.90
2017-07-28T03:46:05.600Z,71.00
2017-07-28T03:48:33.683Z,70.90
2017-07-28T03:51:02.518Z,71.40
2017-07-28T03:53:30.654Z,71.30
2017-07-28T03:55:59.506Z,71.80
2017-07-28T03:58:27.576Z,71.70
2017-07-28T04:00:55.664Z,71.70
2017-07-28T04:03:23.739Z,72.00
2017-07-28T04:05:51.803Z,71.80
2017-07-28T04:08:19.884Z,71.70
2017-07-28T04:10:47.952Z,71.90
2017-07-28T04:13:16.032Z,72.00
2017-07-28T04:15:44.095Z,72.00
2017-07-28T04:18:12.172Z,71.80
2017-07-28T04:23:37.274Z,71.80
2017-07-28T04:26:05.346Z,71.90
2017-07-28T04:28:33.424Z,71.80
2017-07-28T04:31:01.515Z,71.50
2017-07-28T04:33:30.366Z,71.70
2017-07-28T04:35:58.435Z,71.50
2017-07-28T04:38:26.507Z,71.80
2017-07-28T04:40:54.583Z,71.80
2017-07-28T04:43:22.674Z,71.90
2017-07-28T04:45:50.751Z,72.30
2017-07-28T04:48:18.819Z,71.70
2017-07-28T04:50:46.891Z,72.00
2017-07-28T04:53:14.960Z,72.00
2017-07-28T04:55:43.035Z,72.00
2017-07-28T04:58:11.099Z,72.10
2017-07-28T05:00:39.195Z,72.00
2017-07-28T05:03:07.255Z,71.80
2017-07-28T05:05:35.327Z,71.80
2017-07-28T05:08:03.403Z,71.30
2017-07-28T05:10:31.471Z,71.30
2017-07-28T05:12:59.547Z,71.20
2017-07-28T05:15:27.614Z,71.00
2017-07-28T05:17:55.687Z,71.10
2017-07-28T05:20:23.757Z,71.30
2017-07-28T05:22:51.827Z,71.00
2017-07-28T05:25:19.908Z,71.10
2017-07-28T05:27:47.978Z,71.00
2017-07-28T05:30:16.051Z,71.00
2017-07-28T05:32:44.126Z,71.10
2017-07-28T05:35:12.199Z,71.00
2017-07-28T05:37:40.294Z,71.10
2017-07-28T05:40:09.143Z,71.70
2017-07-28T05:42:37.211Z,70.90
2017-07-28T05:45:05.295Z,70.70
2017-07-28T05:47:33.358Z,69.70
2017-07-28T05:50:01.455Z,69.20
2017-07-28T05:52:29.526Z,69.00
2017-07-28T05:54:57.614Z,69.00
2017-07-28T05:57:25.684Z,69.20
2017-07-28T05:59:53.767Z,68.60
2017-07-28T06:02:22.624Z,69.50
2017-07-28T06:04:50.703Z,68.80
2017-07-28T06:07:18.775Z,68.80
2017-07-28T06:09:46.902Z,68.20
2017-07-28T06:12:14.966Z,67.80
2017-07-28T06:14:43.071Z,67.70
2017-07-28T06:17:11.143Z,67.70
2017-07-28T06:19:39.213Z,67.30
2017-07-28T06:22:07.287Z,66.90
2017-07-28T06:24:35.402Z,67.10
2017-07-28T06:27:03.483Z,66.40
2017-07-28T06:29:32.347Z,65.70
2017-07-28T06:32:00.431Z,64.90
2017-07-28T06:34:28.498Z,65.60
2017-07-28T06:36:56.571Z,64.90
2017-07-28T06:39:24.638Z,65.10
2017-07-28T06:41:52.747Z,65.10
2017-07-28T06:44:21.575Z,64.70
2017-07-28T06:46:49.646Z,64.10
2017-07-28T06:49:17.726Z,63.70
2017-07-28T06:51:45.794Z,61.10
2017-07-28T06:54:13.875Z,60.30
2017-07-28T06:56:41.943Z,59.60
2017-07-28T06:59:10.014Z,57.00
2017-07-28T07:01:38.081Z,56.20
2017-07-28T07:04:06.155Z,56.70
2017-07-28T07:06:34.226Z,57.00
2017-07-28T07:09:02.297Z,57.00
2017-07-28T07:11:30.457Z,57.00
2017-07-28T07:13:58.567Z,56.80
2017-07-28T07:16:26.638Z,57.80
2017-07-28T07:18:54.706Z,57.00
2017-07-28T07:21:22.809Z,56.90
2017-07-28T07:23:50.878Z,56.90
2017-07-28T07:26:18.943Z,58.10
2017-07-28T07:28:47.016Z,57.20
2017-07-28T07:31:15.103Z,57.00
2017-07-28T07:33:43.167Z,57.40
2017-07-28T07:36:11.243Z,55.70
2017-07-28T07:38:39.311Z,55.00
2017-07-28T07:41:07.386Z,54.30
2017-07-28T07:43:35.452Z,53.20
2017-07-28T07:46:03.544Z,53.00
2017-07-28T07:48:32.379Z,53.30
2017-07-28T07:51:00.450Z,53.30
2017-07-28T07:53:28.524Z,53.20
2017-07-28T07:55:56.593Z,53.70
2017-07-28T07:58:25.439Z,53.40
2017-07-28T08:00:54.275Z,51.90
2017-07-28T08:03:22.347Z,51.80
2017-07-28T08:05:50.419Z,52.40
2017-07-28T08:08:18.491Z,51.50
2017-07-28T08:10:46.564Z,49.30
2017-07-28T08:13:14.648Z,50.20
2017-07-28T08:15:43.491Z,49.60
2017-07-28T08:18:11.555Z,49.50
2017-07-28T08:20:40.377Z,48.60
2017-07-28T08:23:08.443Z,49.00
2017-07-28T08:25:36.508Z,48.50
2017-07-28T08:28:04.566Z,47.90
2017-07-28T08:30:32.653Z,47.80
2017-07-28T08:33:01.474Z,48.40
2017-07-28T08:35:29.547Z,48.40
2017-07-28T08:37:57.615Z,47.70
2017-07-28T08:40:25.684Z,47.60
2017-07-28T08:42:53.757Z,46.90
2017-07-28T08:45:21.830Z,46.80
2017-07-28T08:47:49.894Z,45.50
2017-07-28T08:50:17.973Z,43.20
2017-07-28T08:52:46.046Z,44.20
2017-07-28T08:55:14.118Z,44.40
2017-07-28T08:57:42.191Z,43.30
2017-07-28T09:00:10.251Z,43.20
2017-07-28T09:02:38.336Z,42.00
2017-07-28T09:05:06.410Z,43.30
2017-07-28T09:07:34.479Z,43.00
2017-07-28T09:10:02.553Z,44.30
2017-07-28T09:12:30.627Z,42.00
2017-07-28T09:14:58.696Z,40.80
2017-07-28T09:17:26.770Z,42.30
2017-07-28T09:19:54.840Z,42.40
2017-07-28T09:22:22.915Z,41.00
2017-07-28T09:24:50.971Z,42.40
2017-07-28T09:29:53.535Z,39.70
2017-07-28T09:32:21.603Z,40.90
2017-07-28T09:34:50.447Z,37.90
2017-07-28T09:37:18.507Z,38.00
2017-07-28T09:39:46.585Z,38.80
2017-07-28T09:42:14.642Z,39.20
2017-07-28T09:44:42.710Z,38.60
2017-07-28T09:47:10.780Z,38.80
2017-07-28T09:49:38.859Z,38.90
2017-07-28T09:52:06.919Z,39.40
2017-07-28T09:54:34.987Z,38.70
2017-07-28T09:57:03.047Z,39.20
2017-07-28T09:59:31.887Z,41.00
2017-07-28T10:01:59.954Z,40.90
2017-07-28T10:04:28.016Z,40.90
2017-07-28T10:06:56.087Z,40.10
2017-07-28T10:09:24.151Z,39.20
2017-07-28T10:11:52.215Z,39.00
2017-07-28T10:14:21.040Z,39.60
2017-07-28T10:16:49.115Z,39.50
2017-07-28T10:19:17.178Z,39.60
2017-07-28T10:21:45.250Z,40.80
2017-07-28T10:24:13.317Z,40.80
2017-07-28T10:26:41.383Z,40.80
2017-07-28T10:29:09.448Z,40.80
2017-07-28T10:31:37.527Z,41.40
2017-07-28T10:34:05.583Z,40.80
2017-07-28T10:36:33.647Z,40.80
2017-07-28T10:39:02.482Z,40.80
2017-07-28T10:41:30.549Z,40.90
2017-07-28T10:43:58.618Z,40.40
2017-07-28T10:46:26.683Z,37.60
2017-07-28T10:48:54.762Z,39.00
2017-07-28T10:51:22.822Z,37.40
2017-07-28T10:53:50.914Z,37.60
2017-07-28T10:56:18.979Z,36.40
2017-07-28T10:58:47.055Z,37.50
2017-07-28T11:01:15.124Z,36.10
2017-07-28T11:03:43.196Z,36.70
2017-07-28T11:06:11.268Z,36.20
2017-07-28T11:08:39.754Z,36.00
2017-07-28T11:11:07.822Z,36.70
2017-07-28T11:13:36.155Z,36.30
2017-07-28T11:16:04.994Z,37.10
2017-07-28T11:18:33.064Z,37.30
2017-07-28T11:21:02.018Z,36.80
2017-07-28T11:23:30.855Z,36.10
2017-07-28T11:25:58.950Z,36.10
2017-07-28T11:28:27.015Z,36.00
2017-07-28T11:30:55.095Z,34.50
2017-07-28T11:33:23.158Z,35.10
2017-07-28T11:35:51.232Z,33.80
2017-07-28T11:38:19.694Z,35.20
2017-07-28T11:40:47.779Z,35.20
2017-07-28T11:43:15.843Z,35.50
2017-07-28T11:45:44.238Z,34.30
2017-07-28T11:48:12.311Z,34.40
2017-07-28T11:50:40.383Z,35.00
2017-07-28T11:53:08.458Z,34.70
2017-07-28T11:55:36.519Z,34.60
2017-07-28T11:58:04.598Z,33.40
2017-07-28T12:00:32.659Z,35.00
2017-07-28T12:03:00.734Z,34.70
2017-07-28T12:05:28.797Z,34.90
2017-07-28T12:07:56.866Z,34.60
2017-07-28T12:10:25.167Z,35.00
2017-07-28T12:12:53.239Z,35.00
2017-07-28T12:15:21.310Z,34.90
2017-07-28T12:17:49.376Z,35.60
2017-07-28T12:20:17.448Z,35.10
2017-07-28T12:22:45.510Z,34.80
2017-07-28T12:25:13.587Z,35.10
2017-07-28T12:27:41.649Z,34.30
2017-07-28T12:30:09.721Z,34.90
2017-07-28T12:32:37.793Z,34.80
2017-07-28T12:35:05.867Z,34.40
2017-07-28T12:37:33.922Z,34.40
2017-07-28T12:40:02.014Z,36.10
2017-07-28T12:42:30.082Z,35.20
2017-07-28T12:44:58.464Z,35.00
2017-07-28T12:47:26.534Z,34.00
2017-07-28T12:49:54.614Z,34.80
2017-07-28T12:52:22.799Z,33.20
2017-07-28T12:54:50.878Z,34.10
2017-07-28T12:57:18.951Z,34.20
2017-07-28T12:59:47.031Z,34.50
2017-07-28T13:02:15.090Z,33.10
2017-07-28T13:04:43.155Z,33.00
2017-07-28T13:07:11.239Z,34.40
2017-07-28T13:09:39.312Z,34.00
2017-07-28T13:12:07.392Z,33.20
2017-07-28T13:14:35.455Z,33.90
2017-07-28T13:17:03.535Z,34.30
2017-07-28T13:19:31.598Z,34.60
2017-07-28T13:22:00.293Z,33.50
2017-07-28T13:24:28.377Z,33.90
2017-07-28T13:26:56.496Z,34.10
2017-07-28T13:29:24.560Z,34.50
2017-07-28T13:31:52.626Z,34.40
2017-07-28T13:34:21.462Z,33.40
2017-07-28T13:36:49.531Z,33.30
2017-07-28T13:39:17.608Z,33.30
2017-07-28T13:41:45.676Z,33.30
2017-07-28T13:44:13.746Z,34.00
2017-07-28T13:46:47.366Z,34.20
2017-07-28T13:49:15.434Z,34.60
2017-07-28T13:51:43.504Z,34.40
2017-07-28T13:54:11.587Z,34.20
2017-07-28T13:56:39.655Z,34.60
2017-07-28T13:59:07.719Z,34.50
2017-07-28T14:01:35.796Z,33.40
2017-07-28T14:04:03.866Z,34.20
2017-07-28T14:06:31.939Z,34.70
2017-07-28T14:09:00.012Z,34.50
2017-07-28T14:11:28.078Z,35.40
2017-07-28T14:13:56.145Z,34.70
2017-07-28T14:16:24.228Z,35.50
2017-07-28T14:18:52.299Z,35.10
2017-07-28T14:21:20.371Z,34.30
2017-07-28T14:23:48.435Z,35.50
2017-07-28T14:26:16.516Z,35.50
2017-07-28T14:28:44.580Z,35.60
2017-07-28T14:31:12.670Z,34.60
2017-07-28T14:33:40.749Z,34.80
2017-07-28T14:36:08.824Z,35.30
2017-07-28T14:38:36.895Z,34.80
2017-07-28T14:41:04.959Z,35.30
2017-07-28T14:43:33.034Z,36.00
2017-07-28T14:46:01.102Z,35.80
2017-07-28T14:48:29.183Z,36.10
2017-07-28T14:50:57.238Z,36.00
2017-07-28T14:53:25.318Z,36.60
2017-07-28T14:55:53.385Z,35.30
2017-07-28T14:58:21.454Z,35.20
2017-07-28T15:00:49.528Z,35.20
2017-07-28T15:03:17.603Z,36.60
2017-07-28T15:05:45.671Z,35.90
2017-07-28T15:08:13.739Z,35.80
2017-07-28T15:10:41.819Z,35.60
2017-07-28T15:13:09.890Z,36.50
2017-07-28T15:15:37.962Z,35.80
2017-07-28T15:18:06.027Z,35.40
2017-07-28T15:20:34.107Z,36.20
2017-07-28T15:23:02.175Z,35.90
2017-07-28T15:25:30.230Z,36.40
2017-07-28T15:27:58.301Z,36.30
2017-07-28T15:30:26.362Z,35.70
2017-07-28T15:32:54.446Z,36.40
2017-07-28T15:35:22.502Z,35.60
2017-07-28T15:37:50.579Z,35.60
2017-07-28T15:40:18.639Z,35.60
2017-07-28T15:42:46.714Z,35.50
2017-07-28T15:45:14.780Z,35.40
2017-07-28T15:47:43.620Z,35.40
2017-07-28T15:50:11.687Z,35.40
2017-07-28T15:52:39.763Z,35.50
2017-07-28T15:55:07.835Z,35.10
2017-07-28T15:57:35.906Z,35.80
2017-07-28T16:00:03.982Z,36.30
2017-07-28T16:02:32.974Z,36.00
2017-07-28T16:05:01.042Z,36.00
2017-07-28T16:07:29.185Z,35.40
2017-07-28T16:09:57.242Z,35.50
2017-07-28T16:12:25.306Z,35.60
2017-07-28T16:14:53.371Z,36.20
2017-07-28T16:17:22.615Z,36.30
2017-07-28T16:19:50.690Z,36.20
2017-07-28T16:22:18.760Z,35.60
2017-07-28T16:24:46.841Z,35.90
2017-07-28T16:27:14.952Z,36.20
2017-07-28T16:29:43.005Z,36.20
2017-07-28T16:32:11.075Z,36.00
2017-07-28T16:34:39.143Z,35.70
2017-07-28T16:37:07.215Z,35.60
2017-07-28T16:39:35.282Z,36.30
2017-07-28T16:42:03.467Z,35.80
2017-07-28T16:44:31.536Z,36.40
2017-07-28T16:46:59.602Z,36.00
2017-07-28T16:49:27.682Z,35.30
2017-07-28T16:51:55.759Z,35.70
2017-07-28T16:54:23.823Z,35.40
2017-07-28T16:56:51.894Z,35.90
2017-07-28T16:59:19.962Z,34.70
2017-07-28T17:01:48.039Z,35.80
2017-07-28T17:04:16.102Z,34.80
2017-07-28T17:06:44.192Z,35.50
2017-07-28T17:09:12.251Z,35.90
2017-07-28T17:11:40.307Z,36.30
2017-07-28T17:14:08.383Z,35.80
2017-07-28T17:16:36.438Z,35.40
2017-07-28T17:19:04.503Z,35.60
2017-07-28T17:21:32.619Z,35.20
2017-07-28T17:24:00.712Z,35.50
2017-07-28T17:26:28.778Z,35.70
2017-07-28T17:28:56.861Z,35.30
2017-07-28T17:31:24.920Z,36.00
2017-07-28T17:33:52.979Z,35.60
2017-07-28T17:36:21.058Z,36.00
2017-07-28T17:38:49.127Z,36.00
2017-07-28T17:41:17.199Z,35.50
2017-07-28T17:43:45.259Z,35.60
2017-07-28T17:46:13.330Z,35.80
2017-07-28T17:48:41.395Z,36.20
2017-07-28T17:51:09.467Z,36.60
2017-07-28T17:53:37.537Z,35.90
2017-07-28T17:56:05.612Z,35.10
2017-07-28T17:58:33.670Z,35.40
2017-07-28T18:01:01.753Z,35.90
2017-07-28T18:03:29.809Z,35.30
2017-07-28T18:05:57.870Z,35.20
2017-07-28T18:08:25.942Z,35.60
2017-07-28T18:10:53.997Z,35.80
2017-07-28T18:13:22.066Z,36.10
2017-07-28T18:15:50.131Z,36.20
2017-07-28T18:18:18.195Z,36.70
2017-07-28T18:20:46.258Z,36.40
2017-07-28T18:23:14.327Z,36.50
2017-07-28T18:25:42.404Z,36.90
2017-07-28T18:28:10.471Z,37.20
2017-07-28T18:30:38.543Z,37.00
2017-07-28T18:33:06.615Z,37.40
2017-07-28T18:35:34.682Z,37.70
2017-07-28T18:38:03.299Z,37.30
2017-07-28T18:40:31.369Z,37.60
2017-07-28T18:42:59.427Z,37.30
2017-07-28T18:45:27.507Z,37.90
2017-07-28T18:47:55.580Z,37.80
2017-07-28T18:50:23.647Z,38.00
2017-07-28T18:52:51.712Z,38.00
2017-07-28T18:55:19.906Z,38.30
2017-07-28T18:57:47.967Z,38.10
2017-07-28T19:00:16.034Z,38.70
2017-07-28T19:02:44.105Z,38.60
2017-07-28T19:05:12.172Z,38.80
2017-07-28T19:07:40.230Z,39.30
2017-07-28T19:10:08.295Z,38.80
2017-07-28T19:12:36.364Z,38.90
2017-07-28T19:15:04.435Z,39.40
2017-07-28T19:17:32.507Z,39.80
2017-07-28T19:20:00.580Z,39.50
2017-07-28T19:22:28.651Z,39.50
2017-07-28T19:24:56.711Z,40.00
2017-07-28T19:27:24.796Z,39.90
2017-07-28T19:29:52.855Z,39.90
2017-07-28T19:32:20.926Z,40.20
2017-07-28T19:34:48.994Z,40.20
2017-07-28T19:37:17.071Z,40.60
2017-07-28T19:39:45.146Z,40.30
2017-07-28T19:42:13.380Z,40.70
2017-07-28T19:44:41.438Z,40.50
2017-07-28T19:47:09.503Z,42.10
2017-07-28T19:49:37.574Z,41.30
2017-07-28T19:52:05.648Z,41.30
2017-07-28T19:54:33.723Z,41.30
2017-07-28T19:57:01.906Z,41.30
2017-07-28T19:59:29.980Z,41.30
2017-07-28T20:01:58.043Z,41.30
2017-07-28T20:04:26.110Z,41.30
2017-07-28T20:06:54.204Z,41.90
2017-07-28T20:09:22.283Z,42.10
2017-07-28T20:11:50.339Z,42.40
2017-07-28T20:14:18.822Z,42.50
2017-07-28T20:16:46.890Z,42.70
2017-07-28T20:19:14.955Z,43.30
2017-07-28T20:21:43.031Z,43.90
2017-07-28T20:24:11.094Z,44.20
2017-07-28T20:26:39.175Z,44.60
2017-07-28T20:29:07.243Z,44.80
2017-07-28T20:31:35.311Z,45.10
2017-07-28T20:34:03.375Z,45.70
2017-07-28T20:36:31.455Z,46.20
2017-07-28T20:38:59.512Z,46.80
2017-07-28T20:41:27.596Z,47.20
2017-07-28T20:43:55.653Z,47.50
2017-07-28T20:46:23.728Z,47.60
2017-07-28T20:48:51.782Z,47.50
2017-07-28T20:51:19.855Z,47.30
2017-07-28T20:53:47.925Z,47.40
2017-07-28T20:56:15.990Z,47.70
2017-07-28T20:58:44.059Z,47.70
2017-07-28T21:01:12.114Z,47.60
2017-07-28T21:03:40.958Z,47.90
2017-07-28T21:06:09.006Z,47.80
2017-07-28T21:08:37.072Z,48.00
2017-07-28T21:11:05.125Z,48.60
2017-07-28T21:13:51.134Z,48.50
2017-07-28T21:16:19.191Z,48.70
2017-07-28T21:18:48.096Z,49.60
2017-07-28T21:21:16.154Z,49.50
2017-07-28T21:23:44.983Z,49.60
2017-07-28T21:26:13.309Z,49.60
2017-07-28T21:28:41.366Z,49.90
2017-07-28T21:31:09.442Z,50.30
2017-07-28T21:33:37.700Z,50.60
2017-07-28T21:36:06.214Z,50.70
2017-07-28T21:38:34.278Z,50.90
2017-07-28T21:41:02.346Z,51.00
2017-07-28T21:43:30.539Z,51.30
2017-07-28T21:45:59.381Z,51.80
2017-07-28T21:48:27.528Z,51.80
2017-07-28T21:50:55.599Z,52.00
2017-07-28T21:53:23.659Z,52.20
2017-07-28T21:55:52.506Z,52.60
2017-07-28T21:58:20.802Z,52.50
2017-07-28T22:00:48.871Z,53.20
2017-07-28T22:03:16.948Z,53.10
2017-07-28T22:05:45.014Z,53.20
2017-07-28T22:08:13.095Z,53.40
2017-07-28T22:10:41.157Z,53.50
2017-07-28T22:13:09.231Z,53.50
2017-07-28T22:15:37.301Z,53.90
2017-07-28T22:18:05.378Z,54.00
2017-07-28T22:20:33.435Z,54.20
2017-07-28T22:23:01.502Z,54.40
2017-07-28T22:25:29.579Z,54.50
2017-07-28T22:27:57.646Z,54.70
2017-07-28T22:30:25.718Z,54.90
2017-07-28T22:32:53.787Z,55.00
2017-07-28T22:35:21.859Z,55.00
2017-07-28T22:37:49.922Z,55.20
2017-07-28T22:40:18.029Z,55.10
2017-07-28T22:42:46.088Z,55.20
2017-07-28T22:45:14.147Z,55.40
2017-07-28T22:47:42.226Z,55.40
2017-07-28T22:50:10.299Z,55.60
2017-07-28T22:52:38.372Z,55.80
2017-07-28T22:55:06.447Z,55.80
2017-07-28T22:57:34.519Z,56.10
2017-07-28T23:00:02.599Z,56.10
2017-07-28T23:02:30.666Z,56.50
2017-07-28T23:04:58.730Z,56.40
2017-07-28T23:07:26.806Z,56.60
2017-07-28T23:09:54.891Z,56.70
2017-07-28T23:12:23.963Z,56.90
2017-07-28T23:14:52.029Z,56.90
2017-07-28T23:17:20.102Z,56.90
2017-07-28T23:19:48.167Z,57.00
2017-07-28T23:22:16.243Z,57.20
2017-07-28T23:24:44.322Z,57.10
2017-07-28T23:27:12.386Z,57.60
2017-07-28T23:29:40.458Z,57.70
2017-07-28T23:32:08.534Z,57.30
2017-07-28T23:34:36.637Z,57.60
2017-07-28T23:37:04.710Z,57.90
2017-07-28T23:39:32.783Z,58.40
2017-07-28T23:42:01.067Z,58.50
2017-07-28T23:44:29.127Z,58.50
2017-07-28T23:46:57.204Z,58.60
2017-07-28T23:49:25.442Z,58.60
2017-07-28T23:51:53.515Z,58.40
2017-07-28T23:54:21.586Z,58.60
2017-07-28T23:56:49.659Z,58.30
2017-07-28T23:59:17.731Z,58.50
